createdAt,value
2017-11-29T00:02:25.072Z,70.30
2017-11-29T00:04:53.629Z,69.60
2017-11-29T00:07:21.558Z,69.50
2017-11-29T00:09:49.136Z,69.50
2017-11-29T00:12:16.845Z,69.00
2017-11-29T00:14:44.528Z,68.80
2017-11-29T00:17:12.118Z,68.80
2017-11-29T00:19:40.846Z,69.90
2017-11-29T00:22:08.455Z,70.40
2017-11-29T00:24:36.046Z,71.70
2017-11-29T00:27:03.678Z,71.20
2017-11-29T00:29:31.422Z,70.80
2017-11-29T00:31:59.045Z,69.00
2017-11-29T00:34:27.465Z,71.50
2017-11-29T00:36:55.048Z,70.40
2017-11-29T00:39:22.619Z,70.40
2017-11-29T00:41:50.249Z,69.20
2017-11-29T00:44:17.803Z,71.50
2017-11-29T00:46:47.949Z,74.20
2017-11-29T00:49:16.295Z,70.80
2017-11-29T00:51:44.704Z,69.60
2017-11-29T00:54:12.276Z,69.60
2017-11-29T00:56:39.849Z,73.70
2017-11-29T00:59:08.209Z,71.10
2017-11-29T01:01:35.810Z,71.20
2017-11-29T01:04:03.385Z,70.00
2017-11-29T01:06:30.992Z,71.00
2017-11-29T01:08:58.563Z,70.70
2017-11-29T01:11:26.123Z,72.60
2017-11-29T01:13:54.376Z,71.40
2017-11-29T01:16:21.962Z,72.00
2017-11-29T01:18:49.678Z,72.10
2017-11-29T01:21:17.276Z,71.90
2017-11-29T01:23:44.869Z,72.00
2017-11-29T01:26:12.429Z,74.00
2017-11-29T01:28:40.063Z,72.10
2017-11-29T01:31:07.676Z,72.00
2017-11-29T01:33:35.238Z,73.10
2017-11-29T01:36:02.849Z,71.50
2017-11-29T01:38:30.405Z,72.60
2017-11-29T01:40:58.786Z,71.70
2017-11-29T01:43:26.466Z,71.60
2017-11-29T01:45:54.028Z,74.20
2017-11-29T01:48:22.192Z,73.00
2017-11-29T01:50:50.577Z,74.10
2017-11-29T01:53:18.167Z,73.20
2017-11-29T01:55:45.768Z,74.00
2017-11-29T01:58:14.117Z,75.00
2017-11-29T02:00:48.425Z,75.00
2017-11-29T02:03:16.137Z,74.00
2017-11-29T02:05:44.465Z,74.30
2017-11-29T02:08:12.055Z,74.10
2017-11-29T02:10:39.635Z,74.30
2017-11-29T02:13:08.057Z,76.70
2017-11-29T02:15:35.900Z,76.80
2017-11-29T02:18:03.453Z,76.90
2017-11-29T02:20:31.053Z,76.20
2017-11-29T02:22:58.620Z,76.40
2017-11-29T02:25:26.176Z,75.60
2017-11-29T02:27:53.758Z,76.80
2017-11-29T02:30:21.329Z,77.20
2017-11-29T02:32:48.942Z,78.00
2017-11-29T02:35:16.546Z,75.90
2017-11-29T02:37:44.163Z,76.00
2017-11-29T02:40:23.494Z,77.80
2017-11-29T02:42:51.876Z,77.00
2017-11-29T02:45:19.425Z,77.50
2017-11-29T02:47:47.056Z,77.70
2017-11-29T02:50:14.793Z,77.70
2017-11-29T02:52:42.347Z,76.90
2017-11-29T02:55:09.957Z,79.10
2017-11-29T02:57:37.511Z,78.70
2017-11-29T03:00:06.187Z,77.10
2017-11-29T03:02:34.518Z,76.40
2017-11-29T03:05:02.939Z,77.40
2017-11-29T03:07:30.484Z,77.30
2017-11-29T03:09:58.190Z,77.30
2017-11-29T03:12:26.516Z,77.10
2017-11-29T03:14:54.137Z,77.00
2017-11-29T03:17:21.733Z,77.60
2017-11-29T03:19:49.312Z,77.40
2017-11-29T03:22:16.920Z,77.50
2017-11-29T03:24:44.496Z,77.60
2017-11-29T03:27:12.067Z,77.40
2017-11-29T03:29:39.720Z,79.70
2017-11-29T03:32:07.333Z,78.10
2017-11-29T03:34:34.893Z,77.40
2017-11-29T03:37:02.477Z,77.20
2017-11-29T03:39:30.222Z,77.60
2017-11-29T03:41:58.009Z,76.20
2017-11-29T03:44:25.594Z,76.70
2017-11-29T03:46:53.167Z,77.10
2017-11-29T03:49:20.767Z,78.10
2017-11-29T03:51:49.091Z,76.40
2017-11-29T03:54:16.812Z,76.40
2017-11-29T03:56:45.129Z,76.70
2017-11-29T03:59:12.731Z,76.60
2017-11-29T04:01:41.075Z,78.30
2017-11-29T04:04:08.677Z,78.40
2017-11-29T04:06:36.389Z,77.60
2017-11-29T04:09:04.099Z,76.80
2017-11-29T04:11:32.441Z,76.50
2017-11-29T04:14:00.039Z,76.50
2017-11-29T04:16:28.157Z,78.10
2017-11-29T04:18:55.769Z,76.10
2017-11-29T04:21:23.329Z,76.40
2017-11-29T04:23:50.914Z,76.50
2017-11-29T04:26:19.247Z,78.10
2017-11-29T04:28:46.853Z,78.90
2017-11-29T04:31:15.188Z,77.40
2017-11-29T04:33:42.972Z,78.00
2017-11-29T04:36:11.380Z,77.50
2017-11-29T04:38:39.730Z,76.80
2017-11-29T04:41:07.332Z,76.70
2017-11-29T04:43:35.229Z,76.70
2017-11-29T04:46:03.047Z,76.80
2017-11-29T04:48:31.041Z,77.10
2017-11-29T04:50:58.653Z,77.70
2017-11-29T04:53:26.222Z,77.10
2017-11-29T04:55:53.905Z,77.00
2017-11-29T04:58:21.507Z,77.50
2017-11-29T05:00:49.118Z,80.00
2017-11-29T05:03:18.421Z,80.60
2017-11-29T05:05:46.018Z,80.60
2017-11-29T05:08:13.623Z,79.00
2017-11-29T05:10:41.201Z,78.40
2017-11-29T05:13:08.817Z,78.40
2017-11-29T05:15:36.372Z,79.10
2017-11-29T05:18:04.173Z,79.00
2017-11-29T05:20:31.753Z,80.00
2017-11-29T05:23:00.224Z,80.90
2017-11-29T05:25:28.947Z,80.20
2017-11-29T05:27:56.677Z,79.50
2017-11-29T05:30:24.292Z,80.50
2017-11-29T05:32:51.939Z,78.90
2017-11-29T05:35:19.554Z,78.30
2017-11-29T05:37:47.128Z,78.10
2017-11-29T05:40:14.884Z,78.20
2017-11-29T05:42:43.741Z,78.10
2017-11-29T05:45:11.437Z,78.80
2017-11-29T05:47:39.024Z,78.70
2017-11-29T05:50:06.653Z,79.40
2017-11-29T05:52:34.257Z,78.50
2017-11-29T05:55:01.816Z,79.00
2017-11-29T05:57:29.401Z,79.30
2017-11-29T05:59:57.021Z,78.70
2017-11-29T06:02:24.603Z,78.90
2017-11-29T06:04:52.218Z,79.60
2017-11-29T06:07:20.567Z,79.30
2017-11-29T06:09:48.168Z,79.20
2017-11-29T06:12:15.729Z,79.20
2017-11-29T06:14:44.100Z,79.50
2017-11-29T06:17:11.896Z,79.40
2017-11-29T06:19:39.463Z,79.90
2017-11-29T06:22:07.073Z,79.50
2017-11-29T06:24:34.631Z,80.00
2017-11-29T06:27:02.405Z,79.30
2017-11-29T06:29:29.956Z,79.40
2017-11-29T06:31:57.733Z,79.40
2017-11-29T06:34:25.381Z,79.20
2017-11-29T06:36:53.755Z,78.40
2017-11-29T06:39:21.389Z,79.10
2017-11-29T06:41:48.953Z,77.80
2017-11-29T06:44:16.521Z,79.20
2017-11-29T06:46:44.373Z,78.00
2017-11-29T06:49:11.987Z,77.50
2017-11-29T06:51:40.465Z,77.00
2017-11-29T06:54:08.030Z,77.00
2017-11-29T06:56:35.611Z,76.50
2017-11-29T06:59:04.057Z,76.10
2017-11-29T07:01:31.648Z,76.00
2017-11-29T07:03:59.236Z,74.10
2017-11-29T07:06:26.824Z,73.40
2017-11-29T07:08:54.385Z,73.50
2017-11-29T07:11:21.965Z,73.80
2017-11-29T07:13:49.630Z,73.50
2017-11-29T07:16:17.245Z,74.40
2017-11-29T07:18:45.169Z,74.40
2017-11-29T07:21:12.812Z,74.60
2017-11-29T07:23:40.410Z,74.10
2017-11-29T07:26:08.016Z,72.70
2017-11-29T07:28:35.616Z,74.10
2017-11-29T07:31:03.976Z,72.70
2017-11-29T07:33:31.589Z,72.70
2017-11-29T07:35:59.261Z,73.70
2017-11-29T07:38:27.037Z,72.00
2017-11-29T07:40:55.389Z,70.60
2017-11-29T07:43:22.953Z,70.20
2017-11-29T07:45:50.723Z,70.60
2017-11-29T07:48:18.784Z,71.40
2017-11-29T07:50:47.165Z,73.10
2017-11-29T07:53:14.782Z,73.00
2017-11-29T07:55:42.401Z,72.40
2017-11-29T07:58:09.997Z,71.70
2017-11-29T08:00:37.616Z,72.10
2017-11-29T08:03:05.200Z,71.70
2017-11-29T08:05:32.961Z,72.80
2017-11-29T08:08:01.414Z,74.90
2017-11-29T08:10:29.037Z,72.90
2017-11-29T08:12:57.170Z,72.50
2017-11-29T08:15:24.768Z,73.20
2017-11-29T08:17:52.382Z,73.10
2017-11-29T08:20:19.981Z,73.40
2017-11-29T08:22:47.597Z,73.80
2017-11-29T08:25:16.157Z,74.60
2017-11-29T08:27:44.550Z,75.30
2017-11-29T08:30:12.978Z,75.30
2017-11-29T08:32:40.618Z,75.20
2017-11-29T08:35:08.499Z,76.10
2017-11-29T08:37:36.314Z,74.30
2017-11-29T08:40:04.698Z,76.40
2017-11-29T08:42:33.167Z,74.90
2017-11-29T08:45:00.829Z,74.80
2017-11-29T08:47:29.249Z,74.70
2017-11-29T08:49:57.501Z,74.90
2017-11-29T08:52:25.737Z,75.40
2017-11-29T08:54:53.404Z,76.20
2017-11-29T08:57:21.035Z,73.60
2017-11-29T08:59:48.609Z,74.40
2017-11-29T09:02:16.222Z,74.80
2017-11-29T09:04:43.835Z,73.10
2017-11-29T09:07:11.458Z,72.70
2017-11-29T09:09:39.047Z,72.70
2017-11-29T09:12:06.965Z,74.00
2017-11-29T09:14:34.621Z,71.80
2017-11-29T09:17:02.261Z,72.50
2017-11-29T09:19:29.820Z,71.70
2017-11-29T09:21:57.437Z,72.20
2017-11-29T09:24:25.012Z,73.90
2017-11-29T09:26:52.705Z,72.70
2017-11-29T09:29:22.608Z,73.80
2017-11-29T09:31:50.215Z,73.80
2017-11-29T09:34:17.801Z,72.10
2017-11-29T09:36:45.363Z,72.80
2017-11-29T09:39:13.025Z,73.00
2017-11-29T09:41:41.399Z,73.30
2017-11-29T09:44:08.965Z,73.30
2017-11-29T09:46:36.785Z,72.50
2017-11-29T09:49:05.626Z,70.70
2017-11-29T09:51:33.229Z,71.40
2017-11-29T09:54:01.601Z,73.20
2017-11-29T09:56:29.176Z,73.20
2017-11-29T09:58:56.781Z,70.80
2017-11-29T10:01:24.374Z,70.10
2017-11-29T10:03:51.977Z,71.50
2017-11-29T10:06:19.578Z,71.50
2017-11-29T10:08:47.180Z,71.60
2017-11-29T10:11:14.800Z,71.50
2017-11-29T10:13:42.493Z,71.20
2017-11-29T10:16:10.085Z,69.80
2017-11-29T10:18:37.711Z,69.30
2017-11-29T10:21:05.751Z,70.80
2017-11-29T10:23:33.360Z,68.10
2017-11-29T10:26:01.366Z,71.60
2017-11-29T10:28:28.932Z,71.70
2017-11-29T10:30:56.903Z,70.00
2017-11-29T10:33:24.540Z,70.50
2017-11-29T10:35:52.331Z,70.40
2017-11-29T10:38:19.916Z,70.70
2017-11-29T10:40:47.565Z,68.40
2017-11-29T10:43:15.253Z,68.50
2017-11-29T10:45:42.870Z,70.90
2017-11-29T10:48:10.500Z,70.30
2017-11-29T10:50:39.175Z,68.00
2017-11-29T10:53:08.514Z,67.80
2017-11-29T10:55:36.067Z,67.80
2017-11-29T10:58:03.817Z,69.20
2017-11-29T11:00:31.371Z,68.50
2017-11-29T11:02:59.113Z,69.10
2017-11-29T11:05:26.679Z,67.70
2017-11-29T11:07:54.293Z,67.70
2017-11-29T11:10:21.857Z,68.50
2017-11-29T11:12:49.617Z,68.30
2017-11-29T11:15:17.270Z,66.20
2017-11-29T11:17:44.877Z,69.40
2017-11-29T11:20:13.223Z,66.50
2017-11-29T11:22:41.729Z,66.40
2017-11-29T11:25:10.442Z,67.90
2017-11-29T11:27:38.050Z,66.80
2017-11-29T11:30:05.613Z,65.90
2017-11-29T11:32:33.225Z,66.20
2017-11-29T11:35:00.842Z,66.20
2017-11-29T11:37:34.336Z,66.80
2017-11-29T11:40:01.927Z,67.90
2017-11-29T11:42:29.550Z,66.30
2017-11-29T11:44:57.178Z,66.90
2017-11-29T11:47:24.807Z,66.40
2017-11-29T11:49:52.391Z,69.80
2017-11-29T11:52:20.760Z,66.20
2017-11-29T11:54:48.375Z,66.90
2017-11-29T11:57:16.406Z,65.80
2017-11-29T11:59:44.154Z,65.70
2017-11-29T12:02:12.341Z,65.30
2017-11-29T12:04:41.614Z,66.50
2017-11-29T12:07:09.296Z,66.50
2017-11-29T12:09:40.195Z,64.90
2017-11-29T12:12:07.958Z,64.80
2017-11-29T12:14:35.555Z,66.10
2017-11-29T12:17:03.908Z,64.70
2017-11-29T12:19:31.654Z,65.80
2017-11-29T12:21:59.259Z,64.30
2017-11-29T12:24:26.874Z,65.30
2017-11-29T12:26:54.505Z,66.00
2017-11-29T12:29:22.198Z,65.80
2017-11-29T12:31:49.784Z,64.60
2017-11-29T12:34:17.397Z,66.10
2017-11-29T12:36:45.129Z,66.10
2017-11-29T12:39:13.198Z,66.80
2017-11-29T12:41:40.770Z,65.10
2017-11-29T12:44:09.161Z,65.50
2017-11-29T12:46:36.751Z,65.40
2017-11-29T12:52:04.892Z,64.70
2017-11-29T12:54:32.455Z,64.60
2017-11-29T12:57:00.043Z,65.00
2017-11-29T12:59:27.605Z,65.80
2017-11-29T13:01:55.984Z,68.40
2017-11-29T13:04:23.574Z,68.40
2017-11-29T13:06:51.141Z,66.40
2017-11-29T13:09:18.882Z,68.40
2017-11-29T13:11:46.518Z,67.50
2017-11-29T13:14:14.885Z,71.00
2017-11-29T13:16:43.230Z,66.70
2017-11-29T13:19:10.791Z,66.60
2017-11-29T13:21:38.386Z,65.90
2017-11-29T13:24:06.023Z,67.00
2017-11-29T13:26:33.584Z,68.90
2017-11-29T13:29:01.192Z,67.20
2017-11-29T13:31:28.781Z,67.20
2017-11-29T13:33:56.378Z,66.30
2017-11-29T13:36:23.936Z,67.70
2017-11-29T13:38:51.580Z,66.90
2017-11-29T13:41:19.174Z,68.10
2017-11-29T13:43:46.777Z,66.70
2017-11-29T13:46:14.341Z,67.80
2017-11-29T13:48:41.962Z,67.50
2017-11-29T13:51:10.940Z,68.80
2017-11-29T13:53:38.579Z,68.40
2017-11-29T13:56:06.191Z,67.70
2017-11-29T13:58:34.601Z,67.70
2017-11-29T14:01:02.226Z,67.70
2017-11-29T14:03:30.559Z,70.30
2017-11-29T14:05:58.133Z,70.20
2017-11-29T14:08:25.752Z,69.20
2017-11-29T14:10:53.374Z,69.00
2017-11-29T14:13:21.195Z,69.80
2017-11-29T14:15:48.763Z,69.70
2017-11-29T14:18:16.355Z,69.00
2017-11-29T14:20:43.968Z,68.20
2017-11-29T14:23:11.882Z,69.50
2017-11-29T14:25:39.558Z,71.20
2017-11-29T14:28:07.167Z,70.40
2017-11-29T14:30:34.736Z,71.10
2017-11-29T14:33:02.364Z,70.20
2017-11-29T14:35:30.694Z,71.40
2017-11-29T14:37:59.529Z,71.30
2017-11-29T14:40:27.304Z,73.20
2017-11-29T14:42:55.038Z,72.40
2017-11-29T14:45:24.532Z,72.90
2017-11-29T14:47:53.091Z,72.40
2017-11-29T14:50:20.734Z,71.80
2017-11-29T14:52:48.324Z,71.90
2017-11-29T14:55:15.920Z,72.80
2017-11-29T14:57:44.259Z,72.90
2017-11-29T15:00:11.871Z,72.90
2017-11-29T15:02:39.816Z,71.90
2017-11-29T15:05:08.208Z,71.70
2017-11-29T15:07:36.572Z,72.10
2017-11-29T15:10:04.282Z,72.00
2017-11-29T15:12:31.845Z,73.30
2017-11-29T15:14:59.837Z,72.50
2017-11-29T15:17:27.853Z,73.70
2017-11-29T15:19:55.484Z,73.20
2017-11-29T15:22:23.887Z,73.90
2017-11-29T15:24:52.460Z,74.80
2017-11-29T15:27:20.242Z,74.80
2017-11-29T15:29:47.900Z,75.00
2017-11-29T15:32:16.006Z,74.80
2017-11-29T15:34:43.604Z,74.60
2017-11-29T15:37:11.242Z,74.90
2017-11-29T15:39:38.924Z,74.70
2017-11-29T15:42:06.491Z,74.90
2017-11-29T15:44:34.219Z,76.10
2017-11-29T15:47:02.000Z,75.20
2017-11-29T15:49:29.656Z,75.30
2017-11-29T15:51:57.260Z,76.20
2017-11-29T15:54:24.821Z,75.90
2017-11-29T15:56:53.051Z,76.50
2017-11-29T15:59:20.914Z,77.80
2017-11-29T16:01:48.671Z,76.90
2017-11-29T16:04:16.233Z,75.90
2017-11-29T16:06:43.845Z,75.90
2017-11-29T16:09:11.434Z,76.40
2017-11-29T16:11:39.467Z,75.80
2017-11-29T16:14:07.292Z,75.70
2017-11-29T16:16:34.908Z,76.20
2017-11-29T16:19:03.385Z,75.60
2017-11-29T16:21:31.800Z,76.00
2017-11-29T16:23:59.365Z,76.10
2017-11-29T16:26:26.983Z,75.60
2017-11-29T16:28:55.311Z,75.90
2017-11-29T16:31:22.945Z,75.90
2017-11-29T16:33:50.539Z,75.90
2017-11-29T16:36:18.224Z,75.80
2017-11-29T16:38:45.828Z,75.50
2017-11-29T16:41:14.274Z,76.00
2017-11-29T16:43:41.872Z,75.90
2017-11-29T16:46:09.568Z,75.90
2017-11-29T16:48:37.158Z,75.90
2017-11-29T16:51:04.795Z,75.70
2017-11-29T16:53:32.385Z,75.40
2017-11-29T16:56:00.204Z,75.70
2017-11-29T16:58:27.793Z,75.90
2017-11-29T17:00:56.345Z,75.20
2017-11-29T17:03:24.240Z,75.50
2017-11-29T17:05:51.811Z,77.10
2017-11-29T17:08:19.416Z,75.40
2017-11-29T17:10:47.017Z,75.40
2017-11-29T17:13:14.592Z,75.40
2017-11-29T17:15:42.430Z,75.80
2017-11-29T17:18:10.001Z,75.40
2017-11-29T17:20:37.800Z,75.90
2017-11-29T17:23:05.440Z,75.40
2017-11-29T17:25:33.037Z,75.50
2017-11-29T17:28:01.681Z,75.90
2017-11-29T17:30:29.494Z,75.80
2017-11-29T17:32:57.941Z,75.90
2017-11-29T17:35:26.343Z,75.80
2017-11-29T17:37:54.223Z,75.80
2017-11-29T17:40:22.961Z,75.40
2017-11-29T17:42:50.590Z,75.40
2017-11-29T17:45:18.181Z,75.40
2017-11-29T17:47:45.747Z,74.90
2017-11-29T17:50:13.401Z,74.80
2017-11-29T17:52:41.004Z,75.10
2017-11-29T17:55:08.658Z,75.40
2017-11-29T17:57:37.098Z,76.00
2017-11-29T18:00:04.659Z,75.10
2017-11-29T18:02:32.300Z,75.50
2017-11-29T18:04:59.875Z,75.20
2017-11-29T18:07:28.318Z,74.80
2017-11-29T18:09:56.124Z,74.90
2017-11-29T18:12:23.832Z,75.40
2017-11-29T18:14:51.468Z,75.00
2017-11-29T18:17:19.080Z,75.00
2017-11-29T18:19:46.696Z,74.70
2017-11-29T18:22:14.356Z,75.90
2017-11-29T18:24:42.302Z,75.10
2017-11-29T18:27:09.905Z,76.20
2017-11-29T18:29:37.562Z,75.10
2017-11-29T18:32:05.951Z,75.20
2017-11-29T18:34:34.226Z,75.10
2017-11-29T18:37:02.902Z,74.70
2017-11-29T18:39:30.730Z,75.20
2017-11-29T18:41:59.272Z,76.10
2017-11-29T18:44:27.944Z,75.40
2017-11-29T18:46:55.680Z,75.20
2017-11-29T18:49:26.030Z,75.80
2017-11-29T18:51:54.217Z,76.20
2017-11-29T18:54:22.588Z,76.10
2017-11-29T18:56:50.219Z,76.10
2017-11-29T18:59:17.781Z,75.50
2017-11-29T19:01:45.442Z,76.20
2017-11-29T19:04:13.048Z,76.10
2017-11-29T19:06:40.680Z,75.20
2017-11-29T19:09:08.278Z,75.90
2017-11-29T19:11:35.876Z,76.40
2017-11-29T19:14:04.532Z,76.00
2017-11-29T19:16:32.837Z,76.20
2017-11-29T19:19:01.930Z,77.80
2017-11-29T19:21:29.544Z,76.40
2017-11-29T19:23:57.390Z,76.60
2017-11-29T19:26:25.172Z,77.70
2017-11-29T19:28:52.989Z,77.00
2017-11-29T19:31:22.377Z,78.30
2017-11-29T19:33:50.991Z,76.90
2017-11-29T19:36:18.717Z,77.60
2017-11-29T19:38:46.463Z,77.20
2017-11-29T19:41:14.309Z,76.20
2017-11-29T19:43:42.153Z,77.60
2017-11-29T19:46:11.882Z,75.80
2017-11-29T19:48:40.464Z,75.90
2017-11-29T19:51:08.708Z,76.60
2017-11-29T19:53:36.997Z,75.50
2017-11-29T19:56:05.095Z,75.30
2017-11-29T19:58:33.247Z,75.90
2017-11-29T20:01:01.443Z,75.50
2017-11-29T20:03:29.512Z,75.90
2017-11-29T20:05:57.232Z,75.60
2017-11-29T20:08:25.555Z,77.20
2017-11-29T20:10:53.419Z,75.40
2017-11-29T20:13:21.704Z,75.50
2017-11-29T20:15:50.692Z,75.80
2017-11-29T20:18:20.562Z,75.80
2017-11-29T20:20:48.761Z,75.70
2017-11-29T20:23:17.020Z,75.40
2017-11-29T20:25:44.807Z,75.50
2017-11-29T20:28:13.768Z,75.40
2017-11-29T20:30:43.177Z,74.90
2017-11-29T20:33:11.663Z,75.00
2017-11-29T20:35:39.957Z,75.10
2017-11-29T20:38:07.626Z,74.80
2017-11-29T20:40:35.287Z,75.00
2017-11-29T20:43:03.044Z,74.90
2017-11-29T20:45:30.810Z,74.90
2017-11-29T20:47:58.705Z,74.70
2017-11-29T20:50:26.945Z,75.20
2017-11-29T20:52:55.850Z,75.30
2017-11-29T20:55:23.832Z,75.10
2017-11-29T20:57:51.576Z,75.10
2017-11-29T21:00:19.224Z,75.20
2017-11-29T21:02:46.814Z,74.90
2017-11-29T21:05:15.116Z,74.40
2017-11-29T21:07:42.969Z,74.60
2017-11-29T21:10:12.770Z,74.50
2017-11-29T21:12:40.651Z,74.40
2017-11-29T21:15:08.853Z,74.60
2017-11-29T21:17:37.136Z,74.40
2017-11-29T21:20:05.275Z,74.70
2017-11-29T21:22:33.552Z,74.70
2017-11-29T21:25:01.636Z,74.80
2017-11-29T21:27:30.305Z,75.70
2017-11-29T21:29:58.766Z,75.10
2017-11-29T21:32:28.783Z,74.10
2017-11-29T21:34:56.887Z,74.20
2017-11-29T21:37:24.677Z,73.80
2017-11-29T21:39:53.612Z,74.20
2017-11-29T21:42:23.144Z,74.10
2017-11-29T21:44:51.552Z,74.20
2017-11-29T21:47:19.492Z,74.20
2017-11-29T21:49:47.956Z,74.60
2017-11-29T21:52:16.560Z,74.40
2017-11-29T21:54:44.610Z,74.00
2017-11-29T21:57:12.475Z,74.20
2017-11-29T21:59:40.260Z,74.10
2017-11-29T22:02:08.722Z,74.30
2017-11-29T22:04:37.100Z,73.90
2017-11-29T22:07:04.872Z,73.90
2017-11-29T22:09:33.671Z,74.20
2017-11-29T22:12:02.440Z,73.60
2017-11-29T22:14:31.278Z,73.20
2017-11-29T22:16:58.936Z,73.20
2017-11-29T22:19:27.371Z,73.30
2017-11-29T22:21:55.872Z,72.00
2017-11-29T22:24:23.819Z,72.10
2017-11-29T22:26:52.148Z,72.40
2017-11-29T22:29:20.584Z,72.90
2017-11-29T22:31:49.031Z,72.50
2017-11-29T22:34:16.735Z,72.50
2017-11-29T22:36:44.433Z,73.20
2017-11-29T22:39:12.664Z,74.20
2017-11-29T22:41:41.413Z,73.30
2017-11-29T22:44:09.744Z,73.60
2017-11-29T22:46:37.491Z,73.60
2017-11-29T22:49:05.997Z,73.20
2017-11-29T22:51:33.666Z,73.50
2017-11-29T22:54:01.419Z,73.00
2017-11-29T22:56:30.700Z,73.10
2017-11-29T22:58:58.438Z,73.10
2017-11-29T23:01:26.143Z,73.80
2017-11-29T23:03:53.712Z,73.50
2017-11-29T23:06:21.698Z,73.70
2017-11-29T23:08:49.277Z,74.00
2017-11-29T23:11:17.557Z,74.10
2017-11-29T23:13:46.558Z,74.50
2017-11-29T23:16:14.867Z,74.50
2017-11-29T23:18:42.586Z,75.10
2017-11-29T23:21:11.853Z,75.60
2017-11-29T23:23:39.592Z,75.50
2017-11-29T23:26:07.225Z,75.90
2017-11-29T23:28:35.211Z,76.00
2017-11-29T23:31:03.044Z,76.20
2017-11-29T23:33:30.753Z,75.40
2017-11-29T23:35:58.648Z,76.40
2017-11-29T23:38:26.487Z,75.10
2017-11-29T23:40:54.101Z,76.10
2017-11-29T23:43:22.439Z,75.50
2017-11-29T23:45:50.601Z,75.50
2017-11-29T23:48:18.368Z,74.00
2017-11-29T23:50:46.438Z,74.00
2017-11-29T23:53:15.532Z,74.60
2017-11-29T23:55:43.662Z,75.30
2017-11-29T23:58:11.368Z,76.50
